sensor_id;sensor_type;location;lat;lon;timestamp;pressure;altitude;pressure_sealevel;temperature;humidity
57668;BME280;43499;52.366;12.912;2023-01-25T00:00:34;103567.59;;;0.29;98.38
57668;BME280;43499;52.366;12.912;2023-01-25T00:01:37;103536.38;;;0.18;98.87
57668;BME280;43499;52.366;12.912;2023-01-25T00:02:38;103547.56;;;0.28;98.38
57668;BME280;43499;52.366;12.912;2023-01-25T00:03:39;103551.63;;;0.32;98.36
57668;BME280;43499;52.366;12.912;2023-01-25T00:04:40;103555.66;;;0.35;97.97
57668;BME280;43499;52.366;12.912;2023-01-25T00:05:41;103534.56;;;0.22;98.64
57668;BME280;43499;52.366;12.912;2023-01-25T00:06:42;103549.22;;;0.27;98.79
57668;BME280;43499;52.366;12.912;2023-01-25T00:07:43;103533.63;;;0.22;98.61
57668;BME280;43499;52.366;12.912;2023-01-25T00:08:48;103529.84;;;0.20;98.42
57668;BME280;43499;52.366;12.912;2023-01-25T00:09:49;103534.47;;;0.17;98.60
57668;BME280;43499;52.366;12.912;2023-01-25T00:10:50;103523.69;;;0.19;98.65
57668;BME280;43499;52.366;12.912;2023-01-25T00:11:51;103507.06;;;0.07;98.51
57668;BME280;43499;52.366;12.912;2023-01-25T00:12:54;103537.75;;;0.31;98.60
57668;BME280;43499;52.366;12.912;2023-01-25T00:13:56;103522.16;;;0.25;98.64
57668;BME280;43499;52.366;12.912;2023-01-25T00:14:57;103535.41;;;0.33;98.58
57668;BME280;43499;52.366;12.912;2023-01-25T00:16:03;103508.44;;;0.21;98.31
57668;BME280;43499;52.366;12.912;2023-01-25T00:17:04;103528.63;;;0.33;98.45
57668;BME280;43499;52.366;12.912;2023-01-25T00:18:05;103530.50;;;0.34;98.79
57668;BME280;43499;52.366;12.912;2023-01-25T00:19:08;103527.19;;;0.35;99.14
57668;BME280;43499;52.366;12.912;2023-01-25T00:20:09;103507.06;;;0.23;98.66
57668;BME280;43499;52.366;12.912;2023-01-25T00:21:17;103524.63;;;0.35;98.54
57668;BME280;43499;52.366;12.912;2023-01-25T00:22:19;103521.78;;;0.34;98.33
57668;BME280;43499;52.366;12.912;2023-01-25T00:23:20;103528.84;;;0.35;98.55
57668;BME280;43499;52.366;12.912;2023-01-25T00:24:21;103498.59;;;0.24;99.22
57668;BME280;43499;52.366;12.912;2023-01-25T00:25:22;103508.00;;;0.23;98.86
57668;BME280;43499;52.366;12.912;2023-01-25T00:26:23;103517.50;;;0.28;98.38
57668;BME280;43499;52.366;12.912;2023-01-25T00:27:24;103500.94;;;0.22;98.22
57668;BME280;43499;52.366;12.912;2023-01-25T00:28:25;103499.56;;;0.24;98.65
57668;BME280;43499;52.366;12.912;2023-01-25T00:29:27;103509.28;;;0.31;98.24
57668;BME280;43499;52.366;12.912;2023-01-25T00:30:28;103483.28;;;0.20;98.34
57668;BME280;43499;52.366;12.912;2023-01-25T00:33:06;103474.06;;;0.16;98.46
57668;BME280;43499;52.366;12.912;2023-01-25T00:35:30;103500.16;;;0.33;98.45
57668;BME280;43499;52.366;12.912;2023-01-25T00:37:42;103495.38;;;0.30;98.90
57668;BME280;43499;52.366;12.912;2023-01-25T00:38:43;103502.06;;;0.34;98.65
57668;BME280;43499;52.366;12.912;2023-01-25T00:39:46;103507.22;;;0.34;98.63
57668;BME280;43499;52.366;12.912;2023-01-25T00:40:48;103440.63;;;-0.04;99.01
57668;BME280;43499;52.366;12.912;2023-01-25T00:41:49;103454.22;;;0.11;99.31
57668;BME280;43499;52.366;12.912;2023-01-25T00:42:50;103479.38;;;0.27;98.87
57668;BME280;43499;52.366;12.912;2023-01-25T00:43:51;103492.38;;;0.33;99.49
57668;BME280;43499;52.366;12.912;2023-01-25T00:44:52;103484.09;;;0.30;99.27
57668;BME280;43499;52.366;12.912;2023-01-25T00:46:00;103489.13;;;0.34;99.18
57668;BME280;43499;52.366;12.912;2023-01-25T00:47:01;103456.50;;;0.25;98.82
57668;BME280;43499;52.366;12.912;2023-01-25T00:48:02;103465.47;;;0.27;99.57
57668;BME280;43499;52.366;12.912;2023-01-25T00:49:06;103465.03;;;0.29;99.98
57668;BME280;43499;52.366;12.912;2023-01-25T00:50:10;103465.03;;;0.29;99.70
57668;BME280;43499;52.366;12.912;2023-01-25T00:51:13;103458.75;;;0.33;99.76
57668;BME280;43499;52.366;12.912;2023-01-25T00:52:15;103452.38;;;0.31;99.81
57668;BME280;43499;52.366;12.912;2023-01-25T00:53:16;103434.63;;;0.23;99.17
57668;BME280;43499;52.366;12.912;2023-01-25T00:54:17;103448.41;;;0.33;99.83
57668;BME280;43499;52.366;12.912;2023-01-25T00:55:19;103446.75;;;0.34;99.30
57668;BME280;43499;52.366;12.912;2023-01-25T00:56:22;103442.53;;;0.34;99.59
57668;BME280;43499;52.366;12.912;2023-01-25T00:57:23;103432.44;;;0.36;100.00
57668;BME280;43499;52.366;12.912;2023-01-25T00:58:25;103422.72;;;0.29;100.00
57668;BME280;43499;52.366;12.912;2023-01-25T00:59:26;103417.53;;;0.29;99.53
57668;BME280;43499;52.366;12.912;2023-01-25T01:00:28;103410.41;;;0.22;99.42
57668;BME280;43499;52.366;12.912;2023-01-25T01:01:29;103427.03;;;0.34;100.00
57668;BME280;43499;52.366;12.912;2023-01-25T01:02:30;103410.00;;;0.30;99.75
57668;BME280;43499;52.366;12.912;2023-01-25T01:03:31;103420.44;;;0.36;100.00
57668;BME280;43499;52.366;12.912;2023-01-25T01:04:32;103415.19;;;0.30;100.00
57668;BME280;43499;52.366;12.912;2023-01-25T01:05:33;103401.00;;;0.23;99.87
57668;BME280;43499;52.366;12.912;2023-01-25T01:06:37;103404.53;;;0.23;99.79
57668;BME280;43499;52.366;12.912;2023-01-25T01:07:38;103421.41;;;0.37;100.00
57668;BME280;43499;52.366;12.912;2023-01-25T01:08:40;103410.91;;;0.25;100.00
57668;BME280;43499;52.366;12.912;2023-01-25T01:09:41;103394.81;;;0.17;100.00
57668;BME280;43499;52.366;12.912;2023-01-25T01:10:42;103423.47;;;0.34;100.00
57668;BME280;43499;52.366;12.912;2023-01-25T01:11:43;103425.28;;;0.29;99.99
57668;BME280;43499;52.366;12.912;2023-01-25T01:12:44;103431.47;;;0.35;100.00
57668;BME280;43499;52.366;12.912;2023-01-25T01:13:46;103431.97;;;0.38;99.36
57668;BME280;43499;52.366;12.912;2023-01-25T01:14:47;103435.03;;;0.36;99.31
57668;BME280;43499;52.366;12.912;2023-01-25T01:15:48;103414.44;;;0.26;100.00
57668;BME280;43499;52.366;12.912;2023-01-25T01:16:49;103404.69;;;0.19;99.78
57668;BME280;43499;52.366;12.912;2023-01-25T01:17:50;103407.34;;;0.25;100.00
57668;BME280;43499;52.366;12.912;2023-01-25T01:18:51;103394.88;;;0.22;100.00
57668;BME280;43499;52.366;12.912;2023-01-25T01:19:52;103412.88;;;0.32;99.53
57668;BME280;43499;52.366;12.912;2023-01-25T01:20:53;103421.56;;;0.33;99.37
57668;BME280;43499;52.366;12.912;2023-01-25T01:21:55;103420.44;;;0.36;99.73
57668;BME280;43499;52.366;12.912;2023-01-25T01:22:56;103426.56;;;0.37;99.84
57668;BME280;43499;52.366;12.912;2023-01-25T01:23:57;103426.56;;;0.37;99.80
57668;BME280;43499;52.366;12.912;2023-01-25T01:24:58;103421.31;;;0.31;99.41
57668;BME280;43499;52.366;12.912;2023-01-25T01:26:05;103427.03;;;0.34;99.00
57668;BME280;43499;52.366;12.912;2023-01-25T01:27:07;103419.44;;;0.30;99.64
57668;BME280;43499;52.366;12.912;2023-01-25T01:28:09;103430.38;;;0.39;98.78
57668;BME280;43499;52.366;12.912;2023-01-25T01:29:12;103429.84;;;0.36;99.49
57668;BME280;43499;52.366;12.912;2023-01-25T01:30:13;103443.31;;;0.39;98.91
57668;BME280;43499;52.366;12.912;2023-01-25T01:31:20;103415.31;;;0.21;99.12
57668;BME280;43499;52.366;12.912;2023-01-25T01:32:41;103440.03;;;0.40;99.06
57668;BME280;43499;52.366;12.912;2023-01-25T01:33:42;103424.44;;;0.34;98.72
57668;BME280;43499;52.366;12.912;2023-01-25T01:34:43;103405.47;;;0.24;99.02
57668;BME280;43499;52.366;12.912;2023-01-25T01:35:44;103433.88;;;0.39;99.05
57668;BME280;43499;52.366;12.912;2023-01-25T01:36:46;103412.81;;;0.26;99.28
57668;BME280;43499;52.366;12.912;2023-01-25T01:37:47;103415.47;;;0.32;98.97
57668;BME280;43499;52.366;12.912;2023-01-25T01:38:49;103414.94;;;0.29;99.35
57668;BME280;43499;52.366;12.912;2023-01-25T01:39:50;103430.38;;;0.39;99.52
57668;BME280;43499;52.366;12.912;2023-01-25T01:40:52;103421.13;;;0.35;98.96
57668;BME280;43499;52.366;12.912;2023-01-25T01:41:53;103415.19;;;0.30;98.99
57668;BME280;43499;52.366;12.912;2023-01-25T01:43:01;103426.13;;;0.39;99.31
57668;BME280;43499;52.366;12.912;2023-01-25T01:44:04;103414.50;;;0.32;99.46
57668;BME280;43499;52.366;12.912;2023-01-25T01:46:50;103398.44;;;0.23;98.81
57668;BME280;43499;52.366;12.912;2023-01-25T01:47:53;103428.63;;;0.34;99.04
57668;BME280;43499;52.366;12.912;2023-01-25T01:49:12;103431.97;;;0.38;99.26
57668;BME280;43499;52.366;12.912;2023-01-25T01:50:20;103418.53;;;0.35;99.40
57668;BME280;43499;52.366;12.912;2023-01-25T01:51:41;103422.31;;;0.37;98.76
57668;BME280;43499;52.366;12.912;2023-01-25T01:52:49;103421.41;;;0.37;99.01
57668;BME280;43499;52.366;12.912;2023-01-25T01:53:54;103417.59;;;0.35;99.03
57668;BME280;43499;52.366;12.912;2023-01-25T01:56:06;103424.91;;;0.37;99.38
57668;BME280;43499;52.366;12.912;2023-01-25T01:57:14;103421.63;;;0.38;99.56
57668;BME280;43499;52.366;12.912;2023-01-25T01:58:16;103406.50;;;0.30;100.00
57668;BME280;43499;52.366;12.912;2023-01-25T01:59:20;103412.19;;;0.33;99.96
57668;BME280;43499;52.366;12.912;2023-01-25T02:00:26;103403.38;;;0.27;99.66
57668;BME280;43499;52.366;12.912;2023-01-25T02:01:28;103421.84;;;0.34;100.00
57668;BME280;43499;52.366;12.912;2023-01-25T02:02:29;103424.91;;;0.37;100.00
57668;BME280;43499;52.366;12.912;2023-01-25T02:03:30;103402.88;;;0.24;100.00
57668;BME280;43499;52.366;12.912;2023-01-25T02:04:33;103423.97;;;0.37;100.00
57668;BME280;43499;52.366;12.912;2023-01-25T02:05:53;103427.25;;;0.36;100.00
57668;BME280;43499;52.366;12.912;2023-01-25T02:07:07;103404.78;;;0.25;100.00
57668;BME280;43499;52.366;12.912;2023-01-25T02:08:13;103427.03;;;0.34;100.00
57668;BME280;43499;52.366;12.912;2023-01-25T02:09:19;103429.16;;;0.37;100.00
57668;BME280;43499;52.366;12.912;2023-01-25T02:10:24;103404.09;;;0.26;100.00
57668;BME280;43499;52.366;12.912;2023-01-25T02:11:28;103407.88;;;0.28;100.00
57668;BME280;43499;52.366;12.912;2023-01-25T02:12:30;103424.22;;;0.38;100.00
57668;BME280;43499;52.366;12.912;2023-01-25T02:13:33;103414.09;;;0.34;100.00
57668;BME280;43499;52.366;12.912;2023-01-25T02:14:36;103403.16;;;0.25;100.00
57668;BME280;43499;52.366;12.912;2023-01-25T02:15:42;103404.09;;;0.26;100.00
57668;BME280;43499;52.366;12.912;2023-01-25T02:16:45;103399.34;;;0.23;100.00
57668;BME280;43499;52.366;12.912;2023-01-25T02:17:46;103405.91;;;0.21;100.00
57668;BME280;43499;52.366;12.912;2023-01-25T02:18:48;103401.72;;;0.22;100.00
57668;BME280;43499;52.366;12.912;2023-01-25T02:19:59;103402.56;;;0.17;100.00
57668;BME280;43499;52.366;12.912;2023-01-25T02:21:03;103396.69;;;0.18;100.00
57668;BME280;43499;52.366;12.912;2023-01-25T02:22:08;103417.00;;;0.26;100.00
57668;BME280;43499;52.366;12.912;2023-01-25T02:23:21;103403.16;;;0.25;100.00
57668;BME280;43499;52.366;12.912;2023-01-25T02:24:29;103420.44;;;0.36;100.00
57668;BME280;43499;52.366;12.912;2023-01-25T02:25:32;103421.41;;;0.37;100.00
57668;BME280;43499;52.366;12.912;2023-01-25T02:26:35;103403.66;;;0.28;100.00
57668;BME280;43499;52.366;12.912;2023-01-25T02:27:40;103406.25;;;0.28;100.00
57668;BME280;43499;52.366;12.912;2023-01-25T02:29:04;103417.34;;;0.33;100.00
57668;BME280;43499;52.366;12.912;2023-01-25T02:30:07;103398.44;;;0.23;100.00
57668;BME280;43499;52.366;12.912;2023-01-25T02:31:08;103399.19;;;0.27;100.00
57668;BME280;43499;52.366;12.912;2023-01-25T02:32:12;103424.91;;;0.37;100.00
57668;BME280;43499;52.366;12.912;2023-01-25T02:33:13;103412.44;;;0.35;100.00
57668;BME280;43499;52.366;12.912;2023-01-25T02:34:15;103413.63;;;0.37;100.00
57668;BME280;43499;52.366;12.912;2023-01-25T02:35:18;103394.19;;;0.23;100.00
57668;BME280;43499;52.366;12.912;2023-01-25T02:36:25;103406.03;;;0.33;100.00
57668;BME280;43499;52.366;12.912;2023-01-25T02:37:27;103414.78;;;0.33;100.00
57668;BME280;43499;52.366;12.912;2023-01-25T02:38:33;103398.50;;;0.28;100.00
57668;BME280;43499;52.366;12.912;2023-01-25T02:39:35;103405.53;;;0.29;100.00
57668;BME280;43499;52.366;12.912;2023-01-25T02:40:51;103382.31;;;0.14;100.00
57668;BME280;43499;52.366;12.912;2023-01-25T02:41:54;103385.16;;;0.15;100.00
57668;BME280;43499;52.366;12.912;2023-01-25T02:42:55;103354.88;;;-0.01;100.00
57668;BME280;43499;52.366;12.912;2023-01-25T02:43:56;103388.78;;;0.22;100.00
57668;BME280;43499;52.366;12.912;2023-01-25T02:44:58;103372.34;;;0.06;100.00
57668;BME280;43499;52.366;12.912;2023-01-25T02:46:04;103402.53;;;0.32;100.00
57668;BME280;43499;52.366;12.912;2023-01-25T02:47:10;103406.03;;;0.33;100.00
57668;BME280;43499;52.366;12.912;2023-01-25T02:48:13;103328.69;;;-0.08;100.00
57668;BME280;43499;52.366;12.912;2023-01-25T02:49:15;103402.53;;;0.32;100.00
57668;BME280;43499;52.366;12.912;2023-01-25T02:50:16;103398.56;;;0.34;100.00
57668;BME280;43499;52.366;12.912;2023-01-25T02:51:17;103392.94;;;0.37;100.00
57668;BME280;43499;52.366;12.912;2023-01-25T02:52:18;103372.03;;;0.20;100.00
57668;BME280;43499;52.366;12.912;2023-01-25T02:53:19;103337.84;;;0.11;100.00
57668;BME280;43499;52.366;12.912;2023-01-25T02:54:20;103389.13;;;0.35;100.00
57668;BME280;43499;52.366;12.912;2023-01-25T02:55:22;103384.13;;;0.30;100.00
57668;BME280;43499;52.366;12.912;2023-01-25T02:56:23;103377.28;;;0.25;100.00
57668;BME280;43499;52.366;12.912;2023-01-25T02:57:24;103356.25;;;0.18;100.00
57668;BME280;43499;52.366;12.912;2023-01-25T02:58:25;103375.44;;;0.30;100.00
57668;BME280;43499;52.366;12.912;2023-01-25T02:59:26;103326.44;;;-0.01;100.00
57668;BME280;43499;52.366;12.912;2023-01-25T03:00:31;103365.03;;;0.24;100.00
57668;BME280;43499;52.366;12.912;2023-01-25T03:01:36;103347.03;;;0.14;100.00
57668;BME280;43499;52.366;12.912;2023-01-25T03:02:37;103381.88;;;0.38;100.00
57668;BME280;43499;52.366;12.912;2023-01-25T03:03:39;103354.19;;;0.21;100.00
57668;BME280;43499;52.366;12.912;2023-01-25T03:04:40;103373.38;;;0.33;100.00
57668;BME280;43499;52.366;12.912;2023-01-25T03:05:42;103376.19;;;0.35;100.00
57668;BME280;43499;52.366;12.912;2023-01-25T03:06:43;103325.53;;;0.04;100.00
57668;BME280;43499;52.366;12.912;2023-01-25T03:07:45;103368.63;;;0.30;100.00
57668;BME280;43499;52.366;12.912;2023-01-25T03:08:47;103375.28;;;0.34;100.00
57668;BME280;43499;52.366;12.912;2023-01-25T03:09:48;103356.59;;;0.25;100.00
57668;BME280;43499;52.366;12.912;2023-01-25T03:10:49;103377.41;;;0.37;100.00
57668;BME280;43499;52.366;12.912;2023-01-25T03:11:50;103320.88;;;0.07;100.00
57668;BME280;43499;52.366;12.912;2023-01-25T03:12:54;103331.22;;;0.07;100.00
57668;BME280;43499;52.366;12.912;2023-01-25T03:13:56;103363.38;;;0.25;100.00
57668;BME280;43499;52.366;12.912;2023-01-25T03:14:57;103369.38;;;0.35;100.00
57668;BME280;43499;52.366;12.912;2023-01-25T03:16:04;103363.66;;;0.26;100.00
57668;BME280;43499;52.366;12.912;2023-01-25T03:17:05;103372.69;;;0.34;100.00
57668;BME280;43499;52.366;12.912;2023-01-25T03:18:06;103355.22;;;0.27;100.00
57668;BME280;43499;52.366;12.912;2023-01-25T03:19:07;103384.03;;;0.40;100.00
57668;BME280;43499;52.366;12.912;2023-01-25T03:20:09;103331.53;;;0.14;100.00
57668;BME280;43499;52.366;12.912;2023-01-25T03:21:17;103372.28;;;0.42;100.00
57668;BME280;43499;52.366;12.912;2023-01-25T03:22:18;103370.41;;;0.41;100.00
57668;BME280;43499;52.366;12.912;2023-01-25T03:23:19;103362.81;;;0.37;100.00
57668;BME280;43499;52.366;12.912;2023-01-25T03:24:21;103344.16;;;0.28;100.00
57668;BME280;43499;52.366;12.912;2023-01-25T03:25:22;103362.06;;;0.33;100.00
57668;BME280;43499;52.366;12.912;2023-01-25T03:26:33;103373.22;;;0.43;100.00
57668;BME280;43499;52.366;12.912;2023-01-25T03:27:56;103358.28;;;0.30;100.00
57668;BME280;43499;52.366;12.912;2023-01-25T03:28:57;103343.13;;;0.22;100.00
57668;BME280;43499;52.366;12.912;2023-01-25T03:29:58;103351.41;;;0.25;100.00
57668;BME280;43499;52.366;12.912;2023-01-25T03:31:03;103373.91;;;0.42;100.00
57668;BME280;43499;52.366;12.912;2023-01-25T03:32:05;103380.75;;;0.41;100.00
57668;BME280;43499;52.366;12.912;2023-01-25T03:33:06;103355.75;;;0.36;100.00
57668;BME280;43499;52.366;12.912;2023-01-25T03:34:08;103364.53;;;0.42;100.00
57668;BME280;43499;52.366;12.912;2023-01-25T03:35:12;103363.84;;;0.43;100.00
57668;BME280;43499;52.366;12.912;2023-01-25T03:36:13;103360.28;;;0.43;100.00
57668;BME280;43499;52.366;12.912;2023-01-25T03:37:16;103366.66;;;0.45;100.00
57668;BME280;43499;52.366;12.912;2023-01-25T03:38:18;103307.56;;;0.15;100.00
57668;BME280;43499;52.366;12.912;2023-01-25T03:39:20;103357.28;;;0.45;100.00
57668;BME280;43499;52.366;12.912;2023-01-25T03:40:21;103346.81;;;0.34;100.00
57668;BME280;43499;52.366;12.912;2023-01-25T03:41:24;103365.22;;;0.41;100.00
57668;BME280;43499;52.366;12.912;2023-01-25T03:42:25;103359.59;;;0.44;100.00
57668;BME280;43499;52.366;12.912;2023-01-25T03:43:30;103331.22;;;0.28;100.00
57668;BME280;43499;52.366;12.912;2023-01-25T03:44:31;103322.22;;;0.21;100.00
57668;BME280;43499;52.366;12.912;2023-01-25T03:45:33;103323.41;;;0.23;100.00
57668;BME280;43499;52.366;12.912;2023-01-25T03:46:36;103356.06;;;0.43;100.00
57668;BME280;43499;52.366;12.912;2023-01-25T03:47:40;103340.22;;;0.36;100.00
57668;BME280;43499;52.366;12.912;2023-01-25T03:48:42;103346.09;;;0.35;100.00
57668;BME280;43499;52.366;12.912;2023-01-25T03:49:43;103294.84;;;0.11;100.00
57668;BME280;43499;52.366;12.912;2023-01-25T03:50:49;103350.91;;;0.43;100.00
57668;BME280;43499;52.366;12.912;2023-01-25T03:51:50;103338.84;;;0.38;100.00
57668;BME280;43499;52.366;12.912;2023-01-25T03:52:53;103279.25;;;0.06;100.00
57668;BME280;43499;52.366;12.912;2023-01-25T03:54:02;103343.63;;;0.46;100.00
57668;BME280;43499;52.366;12.912;2023-01-25T03:55:04;103359.88;;;0.45;100.00
57668;BME280;43499;52.366;12.912;2023-01-25T03:56:07;103340.78;;;0.45;100.00
57668;BME280;43499;52.366;12.912;2023-01-25T03:57:09;103339.84;;;0.44;100.00
57668;BME280;43499;52.366;12.912;2023-01-25T03:58:22;103294.16;;;0.18;100.00
57668;BME280;43499;52.366;12.912;2023-01-25T03:59:25;103323.53;;;0.34;100.00
57668;BME280;43499;52.366;12.912;2023-01-25T04:00:26;103315.50;;;0.33;100.00
57668;BME280;43499;52.366;12.912;2023-01-25T04:01:33;103302.97;;;0.24;100.00
57668;BME280;43499;52.366;12.912;2023-01-25T04:02:35;103319.53;;;0.36;100.00
57668;BME280;43499;52.366;12.912;2023-01-25T04:03:37;103310.72;;;0.24;100.00
57668;BME280;43499;52.366;12.912;2023-01-25T04:04:39;103291.16;;;0.21;100.00
57668;BME280;43499;52.366;12.912;2023-01-25T04:05:43;103318.53;;;0.30;100.00
57668;BME280;43499;52.366;12.912;2023-01-25T04:06:44;103344.34;;;0.45;100.00
57668;BME280;43499;52.366;12.912;2023-01-25T04:07:45;103317.22;;;0.38;100.00
57668;BME280;43499;52.366;12.912;2023-01-25T04:08:47;103333.03;;;0.45;100.00
57668;BME280;43499;52.366;12.912;2023-01-25T04:09:48;103297.59;;;0.28;100.00
57668;BME280;43499;52.366;12.912;2023-01-25T04:10:53;103315.09;;;0.41;100.00
57668;BME280;43499;52.366;12.912;2023-01-25T04:11:55;103315.38;;;0.42;100.00
57668;BME280;43499;52.366;12.912;2023-01-25T04:12:56;103273.75;;;0.20;100.00
57668;BME280;43499;52.366;12.912;2023-01-25T04:13:57;103321.06;;;0.45;100.00
57668;BME280;43499;52.366;12.912;2023-01-25T04:15:02;103285.09;;;0.26;100.00
57668;BME280;43499;52.366;12.912;2023-01-25T04:16:08;103337.31;;;0.50;100.00
57668;BME280;43499;52.366;12.912;2023-01-25T04:17:31;103282.50;;;0.26;100.00
57668;BME280;43499;52.366;12.912;2023-01-25T04:18:35;103302.84;;;0.34;100.00
57668;BME280;43499;52.366;12.912;2023-01-25T04:19:36;103322.22;;;0.48;100.00
57668;BME280;43499;52.366;12.912;2023-01-25T04:20:39;103325.78;;;0.48;100.00
57668;BME280;43499;52.366;12.912;2023-01-25T04:21:40;103305.47;;;0.40;100.00
57668;BME280;43499;52.366;12.912;2023-01-25T04:22:41;103285.34;;;0.27;100.00
57668;BME280;43499;52.366;12.912;2023-01-25T04:23:43;103283.53;;;0.32;100.00
57668;BME280;43499;52.366;12.912;2023-01-25T04:24:44;103283.69;;;0.28;100.00
57668;BME280;43499;52.366;12.912;2023-01-25T04:25:58;103309.56;;;0.49;100.00
57668;BME280;43499;52.366;12.912;2023-01-25T04:27:00;103312.16;;;0.49;100.00
57668;BME280;43499;52.366;12.912;2023-01-25T04:28:03;103303.88;;;0.46;100.00
57668;BME280;43499;52.366;12.912;2023-01-25T04:29:05;103303.19;;;0.47;100.00
57668;BME280;43499;52.366;12.912;2023-01-25T04:30:07;103283.56;;;0.38;100.00
57668;BME280;43499;52.366;12.912;2023-01-25T04:31:10;103251.84;;;0.18;100.00
57668;BME280;43499;52.366;12.912;2023-01-25T04:32:14;103250.19;;;0.18;100.00
57668;BME280;43499;52.366;12.912;2023-01-25T04:33:15;103258.97;;;0.24;100.00
57668;BME280;43499;52.366;12.912;2023-01-25T04:34:18;103286.63;;;0.41;100.00
57668;BME280;43499;52.366;12.912;2023-01-25T04:35:20;103305.31;;;0.50;100.00
57668;BME280;43499;52.366;12.912;2023-01-25T04:36:21;103239.84;;;0.18;100.00
57668;BME280;43499;52.366;12.912;2023-01-25T04:37:22;103298.50;;;0.50;100.00
57668;BME280;43499;52.366;12.912;2023-01-25T04:38:27;103264.44;;;0.32;100.00
57668;BME280;43499;52.366;12.912;2023-01-25T04:39:28;103299.19;;;0.49;100.00
57668;BME280;43499;52.366;12.912;2023-01-25T04:40:29;103294.50;;;0.52;100.00
57668;BME280;43499;52.366;12.912;2023-01-25T04:41:31;103263.50;;;0.31;100.00
57668;BME280;43499;52.366;12.912;2023-01-25T04:42:32;103259.97;;;0.30;100.00
57668;BME280;43499;52.366;12.912;2023-01-25T04:43:33;103279.38;;;0.44;100.00
57668;BME280;43499;52.366;12.912;2023-01-25T04:44:39;103268.97;;;0.38;100.00
57668;BME280;43499;52.366;12.912;2023-01-25T04:45:40;103242.50;;;0.24;100.00
57668;BME280;43499;52.366;12.912;2023-01-25T04:46:47;103285.28;;;0.49;100.00
57668;BME280;43499;52.366;12.912;2023-01-25T04:47:49;103257.13;;;0.29;100.00
57668;BME280;43499;52.366;12.912;2023-01-25T04:48:55;103277.47;;;0.43;100.00
57668;BME280;43499;52.366;12.912;2023-01-25T04:49:56;103242.75;;;0.25;100.00
57668;BME280;43499;52.366;12.912;2023-01-25T04:51:02;103274.91;;;0.43;100.00
57668;BME280;43499;52.366;12.912;2023-01-25T04:52:03;103273.75;;;0.46;100.00
57668;BME280;43499;52.366;12.912;2023-01-25T04:53:06;103247.25;;;0.26;100.00
57668;BME280;43499;52.366;12.912;2023-01-25T04:54:07;103274.47;;;0.45;100.00
57668;BME280;43499;52.366;12.912;2023-01-25T04:55:08;103276.84;;;0.50;100.00
57668;BME280;43499;52.366;12.912;2023-01-25T04:56:14;103283.69;;;0.49;100.00
57668;BME280;43499;52.366;12.912;2023-01-25T04:57:21;103271.63;;;0.44;100.00
57668;BME280;43499;52.366;12.912;2023-01-25T04:58:26;103281.50;;;0.46;100.00
57668;BME280;43499;52.366;12.912;2023-01-25T04:59:27;103282.47;;;0.47;100.00
57668;BME280;43499;52.366;12.912;2023-01-25T05:00:29;103275.63;;;0.48;100.00
57668;BME280;43499;52.366;12.912;2023-01-25T05:01:33;103277.31;;;0.47;100.00
57668;BME280;43499;52.366;12.912;2023-01-25T05:02:38;103217.72;;;0.14;100.00
57668;BME280;43499;52.366;12.912;2023-01-25T05:03:41;103263.84;;;0.44;100.00
57668;BME280;43499;52.366;12.912;2023-01-25T05:04:50;103235.75;;;0.30;100.00
57668;BME280;43499;52.366;12.912;2023-01-25T05:05:53;103263.66;;;0.48;100.00
57668;BME280;43499;52.366;12.912;2023-01-25T05:06:57;103255.16;;;0.43;100.00
57668;BME280;43499;52.366;12.912;2023-01-25T05:08:00;103218.00;;;0.16;100.00
57668;BME280;43499;52.366;12.912;2023-01-25T05:09:02;103261.03;;;0.42;100.00
57668;BME280;43499;52.366;12.912;2023-01-25T05:10:05;103224.91;;;0.27;100.00
57668;BME280;43499;52.366;12.912;2023-01-25T05:11:06;103209.97;;;0.14;100.00
57668;BME280;43499;52.366;12.912;2023-01-25T05:12:31;103258.56;;;0.33;100.00
57668;BME280;43499;52.366;12.912;2023-01-25T05:13:40;103273.00;;;0.42;100.00
57668;BME280;43499;52.366;12.912;2023-01-25T05:14:47;103274.59;;;0.36;100.00
57668;BME280;43499;52.366;12.912;2023-01-25T05:15:48;103267.53;;;0.35;100.00
57668;BME280;43499;52.366;12.912;2023-01-25T05:16:50;103244.38;;;0.25;100.00
57668;BME280;43499;52.366;12.912;2023-01-25T05:17:52;103254.09;;;0.32;100.00
57668;BME280;43499;52.366;12.912;2023-01-25T05:18:54;103272.31;;;0.43;100.00
57668;BME280;43499;52.366;12.912;2023-01-25T05:19:58;103243.16;;;0.17;100.00
57668;BME280;43499;52.366;12.912;2023-01-25T05:20:59;103258.06;;;0.29;100.00
57668;BME280;43499;52.366;12.912;2023-01-25T05:22:02;103254.00;;;0.20;100.00
57668;BME280;43499;52.366;12.912;2023-01-25T05:23:13;103253.56;;;0.23;100.00
57668;BME280;43499;52.366;12.912;2023-01-25T05:24:14;103255.00;;;0.26;100.00
57668;BME280;43499;52.366;12.912;2023-01-25T05:25:16;103225.19;;;0.07;100.00
57668;BME280;43499;52.366;12.912;2023-01-25T05:26:35;103247.25;;;0.26;100.00
57668;BME280;43499;52.366;12.912;2023-01-25T05:27:55;103211.97;;;0.00;100.00
57668;BME280;43499;52.366;12.912;2023-01-25T05:29:37;103257.66;;;0.32;100.00
57668;BME280;43499;52.366;12.912;2023-01-25T05:30:41;103241.09;;;0.26;100.00
57668;BME280;43499;52.366;12.912;2023-01-25T05:31:56;103240.63;;;0.23;100.00
57668;BME280;43499;52.366;12.912;2023-01-25T05:32:57;103200.84;;;-0.05;100.00
57668;BME280;43499;52.366;12.912;2023-01-25T05:33:58;103254.09;;;0.32;100.00
57668;BME280;43499;52.366;12.912;2023-01-25T05:34:59;103250.56;;;0.31;100.00
57668;BME280;43499;52.366;12.912;2023-01-25T05:36:00;103228.03;;;0.09;100.00